createdAt,value
2023-11-15T00:01:48.421Z,89.51
2023-11-15T00:04:15.539Z,89.50
2023-11-15T00:06:42.931Z,89.49
2023-11-15T00:09:10.786Z,89.60
2023-11-15T00:11:40.275Z,89.40
2023-11-15T00:14:09.972Z,89.62
2023-11-15T00:16:37.276Z,89.78
2023-11-15T00:19:04.944Z,89.93
2023-11-15T00:21:32.231Z,89.79
2023-11-15T00:24:02.144Z,89.94
2023-11-15T00:26:30.712Z,90.21
2023-11-15T00:28:58.675Z,90.08
2023-11-15T00:31:26.152Z,90.21
2023-11-15T00:33:53.352Z,89.71
2023-11-15T00:36:21.334Z,89.96
2023-11-15T00:38:48.733Z,89.91
2023-11-15T00:41:16.154Z,89.93
2023-11-15T00:43:44.278Z,90.16
2023-11-15T00:46:14.542Z,89.95
2023-11-15T00:48:43.479Z,90.21
2023-11-15T00:51:10.556Z,90.15
2023-11-15T00:53:37.899Z,90.38
2023-11-15T00:56:05.562Z,90.66
2023-11-15T00:58:40.489Z,90.61
2023-11-15T01:01:12.436Z,90.60
2023-11-15T01:03:57.741Z,90.87
2023-11-15T01:06:26.565Z,90.63
2023-11-15T01:08:56.180Z,90.76
2023-11-15T01:11:24.865Z,90.69
2023-11-15T01:13:52.037Z,90.73
2023-11-15T01:16:19.485Z,90.69
2023-11-15T01:18:46.783Z,90.56
2023-11-15T01:21:14.132Z,90.73
2023-11-15T01:23:41.721Z,90.55
2023-11-15T01:26:10.741Z,90.48
2023-11-15T01:28:38.373Z,90.18
2023-11-15T01:31:05.899Z,90.18
2023-11-15T01:33:33.206Z,89.60
2023-11-15T01:36:00.351Z,89.74
2023-11-15T01:38:27.705Z,89.92
2023-11-15T01:40:55.207Z,89.71
2023-11-15T01:43:22.966Z,90.11
2023-11-15T01:45:52.494Z,90.24
2023-11-15T01:48:20.042Z,90.24
2023-11-15T01:50:48.275Z,90.25
2023-11-15T01:53:15.927Z,90.40
2023-11-15T01:55:45.216Z,90.17
2023-11-15T01:58:16.502Z,90.51
2023-11-15T02:00:44.292Z,90.33
2023-11-15T02:03:12.880Z,90.38
2023-11-15T02:05:40.135Z,90.47
2023-11-15T02:08:08.353Z,90.28
2023-11-15T02:10:36.069Z,90.27
2023-11-15T02:13:03.535Z,90.07
2023-11-15T02:15:31.146Z,90.47
2023-11-15T02:18:03.910Z,90.53
2023-11-15T02:20:31.665Z,90.45
2023-11-15T02:23:00.723Z,90.25
2023-11-15T02:25:27.866Z,90.33
2023-11-15T02:27:54.984Z,90.39
2023-11-15T02:30:24.848Z,90.24
2023-11-15T02:32:52.013Z,90.36
2023-11-15T02:35:19.081Z,90.50
2023-11-15T02:37:46.466Z,90.38
2023-11-15T02:40:13.567Z,90.40
2023-11-15T02:42:40.886Z,90.21
2023-11-15T02:45:09.407Z,90.23
2023-11-15T02:47:39.142Z,90.26
2023-11-15T02:50:06.826Z,90.07
2023-11-15T02:52:37.154Z,90.33
2023-11-15T02:55:05.344Z,90.18
2023-11-15T02:57:32.532Z,90.12
2023-11-15T02:59:59.909Z,90.24
2023-11-15T03:02:27.128Z,90.17
2023-11-15T03:04:54.334Z,89.97
2023-11-15T03:07:21.492Z,90.08
2023-11-15T03:09:48.599Z,90.34
2023-11-15T03:12:15.726Z,90.02
2023-11-15T03:14:43.056Z,90.11
2023-11-15T03:17:17.119Z,90.01
2023-11-15T03:19:45.498Z,90.27
2023-11-15T03:22:16.136Z,90.14
2023-11-15T03:24:46.819Z,90.28
2023-11-15T03:27:14.134Z,90.37
2023-11-15T03:29:41.258Z,90.40
2023-11-15T03:32:08.890Z,90.32
2023-11-15T03:34:37.014Z,90.30
2023-11-15T03:37:06.022Z,90.18
2023-11-15T03:39:34.063Z,90.39
2023-11-15T03:42:01.615Z,90.20
2023-11-15T03:44:28.882Z,90.46
2023-11-15T03:46:56.001Z,90.45
2023-11-15T03:49:23.379Z,90.25
2023-11-15T03:51:51.038Z,90.34
2023-11-15T03:54:18.270Z,90.30
2023-11-15T03:56:46.339Z,90.34
2023-11-15T03:59:13.434Z,90.21
2023-11-15T04:01:52.125Z,90.02
2023-11-15T04:04:25.071Z,90.00
2023-11-15T04:06:52.848Z,90.15
2023-11-15T04:09:20.150Z,89.95
2023-11-15T04:11:47.589Z,90.17
2023-11-15T04:14:15.266Z,90.13
2023-11-15T04:16:50.175Z,89.88
2023-11-15T04:19:18.723Z,89.95
2023-11-15T04:21:46.276Z,90.15
2023-11-15T04:24:14.269Z,90.10
2023-11-15T04:26:42.005Z,89.83
2023-11-15T04:29:09.850Z,89.97
2023-11-15T04:31:37.971Z,90.04
2023-11-15T04:34:06.440Z,90.03
2023-11-15T04:36:34.613Z,89.83
2023-11-15T04:39:09.591Z,89.89
2023-11-15T04:41:38.627Z,90.07
2023-11-15T04:44:06.064Z,90.27
2023-11-15T04:46:35.781Z,89.97
2023-11-15T04:49:08.386Z,90.05
2023-11-15T04:51:35.901Z,89.99
2023-11-15T04:54:03.149Z,90.43
2023-11-15T04:56:30.422Z,90.51
2023-11-15T04:58:57.872Z,90.54
2023-11-15T05:01:25.837Z,90.17
2023-11-15T05:03:53.255Z,90.37
2023-11-15T05:06:23.091Z,90.45
2023-11-15T05:08:50.469Z,90.53
2023-11-15T05:11:17.683Z,90.43
2023-11-15T05:13:46.400Z,90.56
2023-11-15T05:16:15.756Z,90.26
2023-11-15T05:18:42.840Z,90.34
2023-11-15T05:21:10.272Z,90.51
2023-11-15T05:23:37.752Z,90.52
2023-11-15T05:26:05.074Z,90.53
2023-11-15T05:28:32.165Z,90.57
2023-11-15T05:30:59.559Z,90.69
2023-11-15T05:33:26.686Z,90.62
2023-11-15T05:35:57.948Z,90.73
2023-11-15T05:38:29.250Z,90.63
2023-11-15T05:40:56.553Z,90.51
2023-11-15T05:43:23.612Z,90.67
2023-11-15T05:45:50.682Z,90.87
2023-11-15T05:48:17.836Z,90.81
2023-11-15T05:50:45.035Z,90.96
2023-11-15T05:53:12.312Z,90.99
2023-11-15T05:55:41.468Z,90.88
2023-11-15T05:58:09.026Z,91.01
2023-11-15T06:00:36.268Z,90.99
2023-11-15T06:03:05.106Z,90.99
2023-11-15T06:05:32.602Z,90.84
2023-11-15T06:08:02.852Z,90.95
2023-11-15T06:10:35.604Z,91.19
2023-11-15T06:13:02.708Z,91.05
2023-11-15T06:15:29.795Z,91.09
2023-11-15T06:17:57.028Z,91.00
2023-11-15T06:20:24.204Z,90.86
2023-11-15T06:22:52.091Z,90.72
2023-11-15T06:25:22.940Z,90.65
2023-11-15T06:27:50.140Z,90.46
2023-11-15T06:30:18.397Z,90.65
2023-11-15T06:32:46.231Z,90.76
2023-11-15T06:35:20.351Z,90.75
2023-11-15T06:37:48.550Z,90.88
2023-11-15T06:40:19.867Z,90.75
2023-11-15T06:42:47.364Z,90.70
2023-11-15T06:45:14.587Z,90.70
2023-11-15T06:47:44.775Z,90.73
2023-11-15T06:50:12.168Z,90.57
2023-11-15T06:52:39.577Z,90.56
2023-11-15T06:55:12.619Z,90.66
2023-11-15T06:57:42.894Z,90.36
2023-11-15T07:00:14.578Z,90.27
2023-11-15T07:02:44.725Z,90.54
2023-11-15T07:05:12.326Z,90.63
2023-11-15T07:07:39.792Z,90.53
2023-11-15T07:10:08.029Z,90.74
2023-11-15T07:12:38.135Z,90.67
2023-11-15T07:15:05.905Z,90.89
2023-11-15T07:17:33.611Z,90.82
2023-11-15T07:20:00.906Z,90.63
2023-11-15T07:22:28.047Z,90.86
2023-11-15T07:24:55.506Z,90.74
2023-11-15T07:27:25.658Z,90.74
2023-11-15T07:29:54.036Z,90.97
2023-11-15T07:32:21.820Z,90.62
2023-11-15T07:34:48.939Z,90.71
2023-11-15T07:37:16.170Z,90.43
2023-11-15T07:39:43.274Z,90.46
2023-11-15T07:42:10.405Z,90.45
2023-11-15T07:44:37.616Z,90.36
2023-11-15T07:47:05.021Z,90.59
2023-11-15T07:49:32.141Z,90.27
2023-11-15T07:52:00.345Z,90.24
2023-11-15T07:54:27.640Z,90.37
2023-11-15T07:56:54.749Z,90.49
2023-11-15T07:59:23.242Z,90.46
2023-11-15T08:01:50.444Z,90.05
2023-11-15T08:04:17.827Z,90.03
2023-11-15T08:06:45.186Z,90.00
2023-11-15T08:09:26.384Z,90.04
2023-11-15T08:11:58.053Z,90.21
2023-11-15T08:14:27.043Z,90.22
2023-11-15T08:16:54.744Z,90.21
2023-11-15T08:19:21.924Z,89.96
2023-11-15T08:21:49.862Z,90.03
2023-11-15T08:24:23.536Z,89.94
2023-11-15T08:26:54.443Z,89.65
2023-11-15T08:29:22.627Z,89.76
2023-11-15T08:31:50.622Z,89.69
2023-11-15T08:34:22.447Z,89.80
2023-11-15T08:36:51.068Z,89.65
2023-11-15T08:39:18.447Z,89.91
2023-11-15T08:41:48.349Z,89.55
2023-11-15T08:44:19.479Z,88.80
2023-11-15T08:46:47.112Z,87.18
2023-11-15T08:49:17.782Z,85.98
2023-11-15T08:51:48.779Z,84.86
2023-11-15T08:54:17.578Z,83.37
2023-11-15T08:56:47.007Z,81.72
2023-11-15T08:59:17.422Z,79.88
2023-11-15T09:01:46.546Z,79.74
2023-11-15T09:04:14.604Z,79.89
2023-11-15T09:06:49.290Z,80.13
2023-11-15T09:09:17.677Z,81.22
2023-11-15T09:11:46.156Z,82.06
2023-11-15T09:14:16.066Z,82.63
2023-11-15T09:16:43.787Z,83.06
2023-11-15T09:19:17.722Z,83.53
2023-11-15T09:21:49.893Z,84.08
2023-11-15T09:24:23.852Z,84.04
2023-11-15T09:26:51.645Z,84.58
2023-11-15T09:29:18.889Z,84.88
2023-11-15T09:31:46.285Z,84.64
2023-11-15T09:34:13.617Z,85.08
2023-11-15T09:36:40.818Z,85.07
2023-11-15T09:39:11.080Z,85.19
2023-11-15T09:41:38.685Z,85.47
2023-11-15T09:44:11.065Z,85.29
2023-11-15T09:46:39.132Z,85.42
2023-11-15T09:49:08.544Z,85.34
2023-11-15T09:51:39.211Z,85.38
2023-11-15T09:54:13.258Z,86.04
2023-11-15T09:56:46.750Z,85.83
2023-11-15T09:59:14.736Z,86.15
2023-11-15T10:01:47.291Z,85.87
2023-11-15T10:04:27.536Z,86.12
2023-11-15T10:07:05.464Z,86.02
2023-11-15T10:09:37.052Z,85.87
2023-11-15T10:12:05.544Z,85.83
2023-11-15T10:14:34.247Z,85.93
2023-11-15T10:17:04.815Z,86.04
2023-11-15T10:19:33.181Z,85.86
2023-11-15T10:22:02.364Z,85.85
2023-11-15T10:24:30.368Z,86.21
2023-11-15T10:26:59.486Z,86.51
2023-11-15T10:29:27.825Z,86.40
2023-11-15T10:31:58.667Z,86.47
2023-11-15T10:34:34.172Z,86.29
2023-11-15T10:37:12.270Z,86.38
2023-11-15T10:39:45.906Z,86.17
2023-11-15T10:42:14.274Z,86.38
2023-11-15T10:44:43.758Z,86.51
2023-11-15T10:47:13.953Z,86.52
2023-11-15T10:49:45.968Z,86.66
2023-11-15T10:52:15.306Z,86.44
2023-11-15T10:54:44.409Z,86.60
2023-11-15T10:57:12.992Z,86.42
2023-11-15T10:59:41.722Z,86.58
2023-11-15T11:02:11.354Z,85.98
2023-11-15T11:04:40.472Z,85.90
2023-11-15T11:07:15.622Z,85.81
2023-11-15T11:10:11.244Z,85.73
2023-11-15T11:12:38.498Z,85.54
2023-11-15T11:15:26.087Z,85.15
2023-11-15T11:18:13.765Z,85.26
2023-11-15T11:20:42.683Z,84.86
2023-11-15T11:23:23.711Z,84.59
2023-11-15T11:25:53.352Z,84.94
2023-11-15T11:28:22.377Z,85.00
2023-11-15T11:31:20.535Z,85.22
2023-11-15T11:34:09.581Z,85.16
2023-11-15T11:36:55.241Z,85.29
2023-11-15T11:39:44.072Z,85.68
2023-11-15T11:42:27.835Z,85.89
2023-11-15T11:44:59.070Z,85.95
2023-11-15T11:47:26.427Z,86.07
2023-11-15T11:49:53.981Z,86.06
2023-11-15T11:52:21.302Z,86.22
2023-11-15T11:54:54.639Z,85.95
2023-11-15T11:57:23.146Z,86.27
2023-11-15T12:00:12.779Z,86.10
2023-11-15T12:02:45.601Z,86.11
2023-11-15T12:05:14.152Z,85.94
2023-11-15T12:07:46.284Z,86.16
2023-11-15T12:10:17.266Z,86.20
2023-11-15T12:13:04.096Z,85.64
2023-11-15T12:15:31.566Z,85.46
2023-11-15T12:18:01.078Z,85.69
2023-11-15T12:20:35.191Z,85.19
2023-11-15T12:23:09.572Z,85.32
2023-11-15T12:25:53.955Z,85.21
2023-11-15T12:28:32.312Z,85.05
2023-11-15T12:31:05.209Z,84.96
2023-11-15T12:33:35.499Z,84.93
2023-11-15T12:36:05.176Z,84.85
2023-11-15T12:38:33.560Z,84.68
2023-11-15T12:41:07.173Z,84.57
2023-11-15T12:43:35.244Z,84.36
2023-11-15T12:46:15.871Z,84.51
2023-11-15T12:48:43.647Z,84.25
2023-11-15T12:51:10.863Z,84.54
2023-11-15T12:53:37.989Z,84.18
2023-11-15T12:56:05.521Z,84.17
2023-11-15T12:58:32.561Z,84.49
2023-11-15T13:00:59.698Z,84.52
2023-11-15T13:03:32.232Z,84.52
2023-11-15T13:06:09.420Z,84.78
2023-11-15T13:08:38.953Z,84.38
2023-11-15T13:11:07.434Z,84.41
2023-11-15T13:13:34.836Z,84.25
2023-11-15T13:16:02.060Z,84.53
2023-11-15T13:18:29.392Z,84.59
2023-11-15T13:20:59.354Z,84.52
2023-11-15T13:23:27.039Z,84.23
2023-11-15T13:25:57.644Z,83.91
2023-11-15T13:28:25.702Z,83.77
2023-11-15T13:30:52.802Z,83.52
2023-11-15T13:33:20.249Z,82.93
2023-11-15T13:35:47.729Z,82.71
2023-11-15T13:38:14.909Z,82.48
2023-11-15T13:40:42.972Z,82.72
2023-11-15T13:43:10.097Z,82.56
2023-11-15T13:45:37.205Z,82.79
2023-11-15T13:48:04.756Z,82.65
2023-11-15T13:50:31.902Z,82.11
2023-11-15T13:52:59.142Z,82.53
2023-11-15T13:55:26.261Z,82.46
2023-11-15T13:57:53.383Z,82.12
2023-11-15T14:00:25.184Z,82.50
2023-11-15T14:02:53.121Z,82.28
2023-11-15T14:05:22.079Z,82.13
2023-11-15T14:07:49.146Z,82.41
2023-11-15T14:10:20.794Z,82.48
2023-11-15T14:12:47.994Z,81.99
2023-11-15T14:15:19.907Z,82.33
2023-11-15T14:17:49.927Z,82.16
2023-11-15T14:20:19.573Z,81.83
2023-11-15T14:22:46.726Z,81.26
2023-11-15T14:25:22.770Z,81.54
2023-11-15T14:27:54.367Z,81.35
2023-11-15T14:30:24.979Z,80.96
2023-11-15T14:32:52.707Z,80.84
2023-11-15T14:35:20.536Z,80.77
2023-11-15T14:37:50.132Z,80.41
2023-11-15T14:40:22.244Z,80.40
2023-11-15T14:42:52.177Z,80.63
2023-11-15T14:45:20.521Z,81.11
2023-11-15T14:47:48.471Z,81.42
2023-11-15T14:50:17.783Z,81.67
2023-11-15T14:53:08.257Z,81.56
2023-11-15T14:55:37.201Z,81.72
2023-11-15T14:58:04.821Z,81.38
2023-11-15T15:00:31.918Z,81.50
2023-11-15T15:02:59.129Z,81.61
2023-11-15T15:05:26.344Z,81.36
2023-11-15T15:07:53.449Z,81.42
2023-11-15T15:10:21.464Z,81.17
2023-11-15T15:12:49.478Z,81.24
2023-11-15T15:15:19.655Z,81.35
2023-11-15T15:17:48.365Z,81.38
2023-11-15T15:20:19.958Z,81.24
2023-11-15T15:22:48.182Z,81.40
2023-11-15T15:25:16.168Z,81.10
2023-11-15T15:27:43.525Z,81.44
2023-11-15T15:30:15.001Z,81.33
2023-11-15T15:32:42.571Z,81.06
2023-11-15T15:35:13.640Z,81.22
2023-11-15T15:37:41.618Z,81.26
2023-11-15T15:40:18.014Z,81.08
2023-11-15T15:42:46.035Z,81.24
2023-11-15T15:45:16.113Z,81.42
2023-11-15T15:47:47.120Z,81.49
2023-11-15T15:50:15.368Z,81.34
2023-11-15T15:52:43.564Z,81.13
2023-11-15T15:55:11.809Z,81.45
2023-11-15T15:57:39.468Z,81.28
2023-11-15T16:00:08.343Z,81.14
2023-11-15T16:02:36.403Z,81.35
2023-11-15T16:05:08.060Z,81.29
2023-11-15T16:07:35.528Z,81.58
2023-11-15T16:10:03.112Z,81.72
2023-11-15T16:12:32.827Z,81.84
2023-11-15T16:15:00.269Z,82.01
2023-11-15T16:17:28.593Z,81.52
2023-11-15T16:19:58.246Z,81.63
2023-11-15T16:22:26.485Z,81.74
2023-11-15T16:24:55.914Z,81.54
2023-11-15T16:27:28.515Z,81.69
2023-11-15T16:30:02.182Z,81.78
2023-11-15T16:32:30.069Z,81.73
2023-11-15T16:34:57.919Z,81.63
2023-11-15T16:37:26.199Z,81.87
2023-11-15T16:39:53.953Z,81.69
2023-11-15T16:42:21.920Z,81.46
2023-11-15T16:44:49.334Z,81.67
2023-11-15T16:47:16.510Z,81.63
2023-11-15T16:49:43.874Z,81.66
2023-11-15T16:52:11.641Z,81.62
2023-11-15T16:54:38.903Z,81.41
2023-11-15T16:57:06.666Z,81.62
2023-11-15T16:59:34.422Z,81.58
2023-11-15T17:02:02.000Z,81.27
2023-11-15T17:04:29.242Z,81.55
2023-11-15T17:06:57.567Z,81.84
2023-11-15T17:09:24.808Z,81.77
2023-11-15T17:11:52.123Z,81.70
2023-11-15T17:14:22.232Z,81.57
2023-11-15T17:16:50.352Z,81.72
2023-11-15T17:19:20.744Z,81.81
2023-11-15T17:21:48.537Z,81.92
2023-11-15T17:24:20.308Z,81.58
2023-11-15T17:26:48.051Z,81.90
2023-11-15T17:29:15.463Z,82.16
2023-11-15T17:31:43.018Z,82.11
2023-11-15T17:34:12.565Z,82.00
2023-11-15T17:36:42.096Z,82.27
2023-11-15T17:39:12.855Z,82.24
2023-11-15T17:41:40.158Z,82.46
2023-11-15T17:44:12.994Z,82.55
2023-11-15T17:46:44.258Z,82.57
2023-11-15T17:49:12.358Z,82.88
2023-11-15T17:51:40.054Z,82.98
2023-11-15T17:54:10.168Z,83.11
2023-11-15T17:56:37.343Z,82.85
2023-11-15T17:59:05.916Z,83.12
2023-11-15T18:01:34.283Z,83.00
2023-11-15T18:04:02.055Z,83.08
2023-11-15T18:06:29.218Z,82.90
2023-11-15T18:08:56.621Z,83.09
2023-11-15T18:11:23.859Z,83.38
2023-11-15T18:13:51.168Z,83.24
2023-11-15T18:16:18.340Z,83.57
2023-11-15T18:18:45.569Z,83.41
2023-11-15T18:21:12.841Z,83.65
2023-11-15T18:23:40.031Z,83.41
2023-11-15T18:26:07.185Z,83.59
2023-11-15T18:28:35.068Z,83.48
2023-11-15T18:31:07.739Z,83.48
2023-11-15T18:33:40.018Z,83.85
2023-11-15T18:36:10.718Z,83.88
2023-11-15T18:38:37.985Z,83.79
2023-11-15T18:41:06.045Z,83.93
2023-11-15T18:43:33.127Z,84.00
2023-11-15T18:46:00.265Z,83.59
2023-11-15T18:48:27.791Z,83.91
2023-11-15T18:50:54.949Z,83.89
2023-11-15T18:53:22.037Z,83.66
2023-11-15T18:55:49.366Z,84.39
2023-11-15T18:58:16.511Z,84.22
2023-11-15T19:00:43.606Z,84.44
2023-11-15T19:03:12.829Z,84.53
2023-11-15T19:05:40.775Z,84.78
2023-11-15T19:08:07.840Z,84.36
2023-11-15T19:10:34.990Z,84.51
2023-11-15T19:13:02.144Z,84.40
2023-11-15T19:15:31.221Z,84.54
2023-11-15T19:17:58.456Z,84.55
2023-11-15T19:20:27.365Z,84.86
2023-11-15T19:22:55.146Z,84.89
2023-11-15T19:25:23.490Z,84.89
2023-11-15T19:27:51.070Z,85.04
2023-11-15T19:30:21.037Z,84.97
2023-11-15T19:32:48.568Z,84.96
2023-11-15T19:35:18.281Z,84.91
2023-11-15T19:37:45.471Z,84.98
2023-11-15T19:40:13.152Z,84.87
2023-11-15T19:42:40.220Z,85.22
2023-11-15T19:45:09.009Z,85.25
2023-11-15T19:47:36.439Z,84.98
2023-11-15T19:50:04.087Z,84.94
2023-11-15T19:52:31.386Z,84.97
2023-11-15T19:54:59.065Z,85.40
2023-11-15T19:57:28.162Z,85.23
2023-11-15T19:59:56.480Z,85.06
2023-11-15T20:02:29.287Z,85.16
2023-11-15T20:04:59.368Z,85.01
2023-11-15T20:07:28.141Z,85.05
2023-11-15T20:09:55.230Z,85.21
2023-11-15T20:12:24.877Z,85.20
2023-11-15T20:14:52.030Z,85.10
2023-11-15T20:17:19.173Z,85.21
2023-11-15T20:19:46.306Z,85.54
2023-11-15T20:22:13.418Z,85.60
2023-11-15T20:24:40.580Z,85.86
2023-11-15T20:27:09.097Z,85.97
2023-11-15T20:29:37.148Z,85.59
2023-11-15T20:32:04.506Z,85.60
2023-11-15T20:34:31.691Z,85.82
2023-11-15T20:36:58.962Z,85.77
2023-11-15T20:39:28.407Z,85.90
2023-11-15T20:41:57.313Z,85.84
2023-11-15T20:44:24.543Z,85.92
2023-11-15T20:46:51.917Z,85.68
2023-11-15T20:49:19.298Z,85.82
2023-11-15T20:51:48.959Z,85.79
2023-11-15T20:54:17.703Z,85.81
2023-11-15T20:56:46.152Z,85.85
2023-11-15T20:59:14.049Z,85.87
2023-11-15T21:01:41.220Z,85.90
2023-11-15T21:04:12.648Z,86.05
2023-11-15T21:06:39.808Z,86.21
2023-11-15T21:09:10.952Z,86.37
2023-11-15T21:11:42.057Z,86.46
2023-11-15T21:14:09.549Z,86.26
2023-11-15T21:16:38.139Z,86.33
2023-11-15T21:19:05.556Z,86.48
2023-11-15T21:21:34.319Z,86.33
2023-11-15T21:24:02.597Z,86.27
2023-11-15T21:26:29.742Z,86.14
2023-11-15T21:29:00.160Z,86.02
2023-11-15T21:31:27.957Z,85.98
2023-11-15T21:33:55.101Z,85.89
2023-11-15T21:36:22.430Z,86.11
2023-11-15T21:38:49.478Z,86.16
2023-11-15T21:41:17.757Z,86.15
2023-11-15T21:43:45.006Z,86.01
2023-11-15T21:46:12.110Z,85.99
2023-11-15T21:48:39.259Z,85.83
2023-11-15T21:51:06.678Z,86.27
2023-11-15T21:53:34.528Z,85.98
2023-11-15T21:56:03.072Z,85.90
2023-11-15T21:58:30.825Z,86.15
2023-11-15T22:00:57.991Z,85.95
2023-11-15T22:03:25.341Z,85.96
2023-11-15T22:05:52.705Z,85.98
2023-11-15T22:08:19.757Z,85.59
2023-11-15T22:10:47.254Z,86.00
2023-11-15T22:13:14.431Z,85.84
2023-11-15T22:15:41.590Z,85.77
2023-11-15T22:18:08.940Z,85.74
2023-11-15T22:20:36.767Z,85.75
2023-11-15T22:23:05.249Z,85.50
2023-11-15T22:25:32.541Z,85.26
2023-11-15T22:27:59.659Z,85.52
2023-11-15T22:30:26.843Z,85.29
2023-11-15T22:32:53.980Z,85.24
2023-11-15T22:35:22.196Z,85.10
2023-11-15T22:37:49.435Z,85.10
2023-11-15T22:40:16.520Z,84.92
2023-11-15T22:42:48.733Z,85.12
2023-11-15T22:45:18.429Z,84.90
2023-11-15T22:47:45.607Z,84.90
2023-11-15T22:50:12.691Z,84.91
2023-11-15T22:52:39.742Z,84.83
2023-11-15T22:55:08.742Z,84.78
2023-11-15T22:57:35.841Z,84.93
2023-11-15T23:00:03.896Z,84.73
2023-11-15T23:02:32.426Z,84.67
2023-11-15T23:04:59.726Z,84.93
2023-11-15T23:07:27.035Z,85.09
2023-11-15T23:09:54.121Z,84.98
2023-11-15T23:12:24.415Z,85.02
2023-11-15T23:14:51.851Z,84.76
2023-11-15T23:17:19.716Z,84.97
2023-11-15T23:19:50.648Z,84.88
2023-11-15T23:22:17.737Z,84.86
2023-11-15T23:24:44.840Z,84.91
2023-11-15T23:27:11.938Z,84.81
2023-11-15T23:29:39.036Z,84.97
2023-11-15T23:32:06.736Z,84.59
2023-11-15T23:34:33.811Z,84.61
2023-11-15T23:37:00.913Z,84.85
2023-11-15T23:39:28.097Z,84.84
2023-11-15T23:41:55.295Z,85.08
2023-11-15T23:44:22.455Z,84.99
2023-11-15T23:46:52.463Z,84.81
2023-11-15T23:49:20.124Z,84.63
2023-11-15T23:51:47.178Z,84.77
2023-11-15T23:54:14.305Z,84.79
2023-11-15T23:56:43.037Z,84.80
2023-11-15T23:59:10.283Z,84.75
